createdAt,value
2022-11-20T00:01:20.121Z,75.96
2022-11-20T00:03:46.925Z,75.93
2022-11-20T00:06:15.294Z,75.76
2022-11-20T00:08:42.026Z,75.88
2022-11-20T00:11:15.452Z,75.83
2022-11-20T00:13:43.120Z,75.90
2022-11-20T00:16:10.801Z,75.79
2022-11-20T00:18:37.474Z,75.74
2022-11-20T00:21:05.297Z,75.72
2022-11-20T00:23:32.111Z,75.90
2022-11-20T00:26:03.159Z,75.73
2022-11-20T00:28:29.785Z,75.69
2022-11-20T00:31:07.628Z,75.78
2022-11-20T00:33:34.768Z,75.77
2022-11-20T00:36:02.793Z,75.80
2022-11-20T00:38:29.531Z,75.97
2022-11-20T00:40:59.935Z,75.94
2022-11-20T00:43:26.836Z,75.78
2022-11-20T00:46:00.243Z,75.62
2022-11-20T00:48:26.956Z,75.63
2022-11-20T00:50:54.058Z,75.55
2022-11-20T00:53:20.737Z,75.54
2022-11-20T00:56:05.469Z,75.52
2022-11-20T00:58:36.723Z,75.49
2022-11-20T01:01:04.887Z,75.59
2022-11-20T01:03:33.330Z,75.50
2022-11-20T01:06:02.010Z,75.67
2022-11-20T01:08:33.086Z,75.75
2022-11-20T01:11:08.031Z,75.64
2022-11-20T01:13:41.542Z,75.75
2022-11-20T01:16:15.494Z,75.73
2022-11-20T01:18:43.730Z,75.65
2022-11-20T01:21:12.764Z,75.68
2022-11-20T01:23:40.377Z,75.77
2022-11-20T01:26:09.007Z,75.81
2022-11-20T01:28:35.811Z,75.86
2022-11-20T01:31:02.966Z,75.97
2022-11-20T01:33:30.008Z,75.81
2022-11-20T01:36:04.438Z,75.78
2022-11-20T01:38:31.070Z,75.94
2022-11-20T01:40:57.742Z,76.08
2022-11-20T01:43:24.685Z,75.89
2022-11-20T01:46:16.830Z,76.02
2022-11-20T01:48:55.051Z,76.00
2022-11-20T01:51:32.265Z,76.03
2022-11-20T01:54:00.574Z,76.17
2022-11-20T01:56:27.243Z,76.26
2022-11-20T01:58:55.641Z,76.18
2022-11-20T02:01:22.596Z,76.04
2022-11-20T02:03:49.562Z,76.27
2022-11-20T02:06:20.621Z,76.09
2022-11-20T02:08:47.273Z,76.36
2022-11-20T02:11:14.073Z,76.50
2022-11-20T02:13:46.994Z,76.42
2022-11-20T02:16:22.803Z,76.33
2022-11-20T02:18:49.643Z,76.26
2022-11-20T02:21:29.715Z,76.33
2022-11-20T02:24:21.058Z,76.31
2022-11-20T02:26:53.187Z,76.41
2022-11-20T02:29:27.150Z,76.41
2022-11-20T02:31:53.789Z,76.63
2022-11-20T02:34:20.428Z,76.65
2022-11-20T02:36:47.068Z,76.76
2022-11-20T02:39:13.833Z,76.59
2022-11-20T02:41:40.592Z,76.66
2022-11-20T02:44:07.363Z,76.74
2022-11-20T02:46:34.077Z,76.68
2022-11-20T02:49:02.406Z,76.67
2022-11-20T02:51:29.030Z,76.55
2022-11-20T02:53:55.718Z,76.49
2022-11-20T02:56:22.361Z,76.44
2022-11-20T02:58:49.017Z,76.48
2022-11-20T03:01:15.719Z,76.30
2022-11-20T03:03:42.466Z,76.31
2022-11-20T03:06:09.266Z,76.42
2022-11-20T03:08:35.990Z,76.66
2022-11-20T03:11:04.178Z,76.53
2022-11-20T03:13:30.816Z,76.51
2022-11-20T03:15:57.461Z,76.47
2022-11-20T03:18:24.157Z,76.53
2022-11-20T03:20:50.753Z,76.55
2022-11-20T03:23:17.413Z,76.34
2022-11-20T03:25:44.052Z,76.38
2022-11-20T03:28:10.728Z,76.41
2022-11-20T03:30:37.450Z,76.53
2022-11-20T03:33:04.111Z,76.51
2022-11-20T03:35:30.854Z,76.24
2022-11-20T03:37:58.492Z,76.10
2022-11-20T03:40:25.080Z,75.91
2022-11-20T03:42:51.728Z,75.88
2022-11-20T03:45:18.775Z,75.67
2022-11-20T03:47:45.680Z,75.63
2022-11-20T03:50:14.007Z,75.92
2022-11-20T03:52:40.760Z,76.08
2022-11-20T03:55:08.057Z,76.14
2022-11-20T03:57:34.674Z,75.94
2022-11-20T04:00:01.402Z,76.17
2022-11-20T04:02:31.127Z,76.39
2022-11-20T04:04:57.765Z,76.40
2022-11-20T04:07:24.657Z,76.61
2022-11-20T04:09:51.385Z,76.64
2022-11-20T04:12:18.045Z,76.69
2022-11-20T04:14:44.816Z,76.83
2022-11-20T04:17:11.492Z,77.10
2022-11-20T04:19:38.201Z,77.12
2022-11-20T04:22:04.893Z,77.12
2022-11-20T04:24:31.535Z,77.29
2022-11-20T04:26:58.276Z,77.36
2022-11-20T04:29:25.003Z,77.38
2022-11-20T04:31:51.629Z,77.43
2022-11-20T04:34:18.252Z,77.27
2022-11-20T04:36:45.031Z,77.34
2022-11-20T04:39:16.301Z,77.24
2022-11-20T04:41:43.106Z,77.04
2022-11-20T04:44:09.770Z,76.97
2022-11-20T04:46:38.460Z,76.99
2022-11-20T04:49:05.184Z,77.10
2022-11-20T04:51:32.132Z,76.95
2022-11-20T04:53:58.836Z,76.86
2022-11-20T04:56:25.603Z,77.09
2022-11-20T04:58:52.313Z,76.95
2022-11-20T05:01:20.815Z,77.01
2022-11-20T05:03:47.557Z,77.22
2022-11-20T05:06:15.690Z,77.23
2022-11-20T05:08:42.449Z,77.16
2022-11-20T05:11:11.215Z,77.21
2022-11-20T05:13:38.140Z,77.16
2022-11-20T05:16:06.414Z,77.28
2022-11-20T05:18:34.331Z,77.44
2022-11-20T05:21:01.052Z,77.50
2022-11-20T05:23:28.285Z,77.49
2022-11-20T05:25:59.165Z,77.68
2022-11-20T05:28:26.721Z,77.88
2022-11-20T05:30:53.359Z,77.79
2022-11-20T05:33:20.257Z,77.65
2022-11-20T05:35:47.032Z,77.72
2022-11-20T05:38:13.715Z,77.83
2022-11-20T05:40:40.370Z,77.92
2022-11-20T05:43:07.079Z,77.99
2022-11-20T05:45:33.781Z,78.12
2022-11-20T05:48:01.325Z,78.11
2022-11-20T05:50:28.514Z,78.48
2022-11-20T05:52:55.200Z,78.72
2022-11-20T05:55:21.874Z,78.83
2022-11-20T05:57:48.577Z,79.24
2022-11-20T06:00:15.869Z,79.16
2022-11-20T06:02:42.545Z,79.10
2022-11-20T06:05:09.615Z,79.09
2022-11-20T06:07:36.277Z,79.06
2022-11-20T06:10:03.179Z,78.99
2022-11-20T06:12:32.594Z,79.08
2022-11-20T06:14:59.973Z,78.97
2022-11-20T06:17:26.606Z,78.82
2022-11-20T06:19:53.246Z,78.58
2022-11-20T06:22:20.044Z,78.25
2022-11-20T06:24:46.761Z,78.09
2022-11-20T06:27:13.412Z,78.25
2022-11-20T06:29:40.049Z,78.49
2022-11-20T06:32:06.677Z,78.44
2022-11-20T06:34:33.419Z,78.34
2022-11-20T06:37:00.046Z,78.24
2022-11-20T06:39:26.687Z,78.02
2022-11-20T06:41:58.563Z,78.02
2022-11-20T06:44:25.885Z,77.92
2022-11-20T06:46:52.728Z,77.98
2022-11-20T06:49:19.740Z,77.82
2022-11-20T06:51:46.625Z,77.72
2022-11-20T06:54:13.431Z,77.95
2022-11-20T06:56:40.374Z,78.46
2022-11-20T06:59:07.944Z,78.87
2022-11-20T07:01:34.935Z,79.22
2022-11-20T07:04:01.663Z,79.28
2022-11-20T07:06:28.562Z,79.52
2022-11-20T07:08:55.503Z,79.64
2022-11-20T07:11:22.216Z,79.76
2022-11-20T07:13:48.827Z,79.86
2022-11-20T07:16:15.585Z,79.94
2022-11-20T07:18:47.320Z,80.09
2022-11-20T07:23:40.630Z,80.43
2022-11-20T07:26:08.386Z,80.97
2022-11-20T07:28:35.275Z,81.21
2022-11-20T07:31:02.059Z,81.47
2022-11-20T07:33:28.809Z,81.66
2022-11-20T07:35:55.588Z,81.93
2022-11-20T07:38:22.274Z,82.10
2022-11-20T07:40:49.992Z,82.04
2022-11-20T07:43:16.684Z,82.26
2022-11-20T07:45:43.621Z,82.22
2022-11-20T07:48:10.379Z,82.12
2022-11-20T07:50:37.037Z,82.03
2022-11-20T07:53:05.086Z,82.20
2022-11-20T07:55:31.866Z,82.33
2022-11-20T07:57:58.623Z,82.29
2022-11-20T08:00:25.891Z,82.22
2022-11-20T08:02:53.037Z,82.00
2022-11-20T08:05:19.877Z,81.58
2022-11-20T08:07:46.783Z,81.58
2022-11-20T08:10:14.544Z,81.24
2022-11-20T08:13:04.114Z,81.05
2022-11-20T08:15:30.990Z,80.54
2022-11-20T08:18:29.520Z,80.48
2022-11-20T08:20:51.448Z,81.00
2022-11-20T08:23:18.126Z,81.32
2022-11-20T08:25:44.811Z,81.71
2022-11-20T08:28:20.209Z,82.06
2022-11-20T08:30:48.184Z,82.05
2022-11-20T08:33:15.313Z,82.33
2022-11-20T08:35:42.840Z,82.20
2022-11-20T08:38:09.570Z,81.99
2022-11-20T08:40:36.253Z,82.40
2022-11-20T08:43:02.966Z,82.61
2022-11-20T08:45:33.707Z,82.39
2022-11-20T08:48:01.939Z,82.46
2022-11-20T08:50:28.595Z,82.40
2022-11-20T08:52:55.414Z,82.47
2022-11-20T08:55:22.055Z,82.49
2022-11-20T08:57:51.100Z,82.48
2022-11-20T09:00:18.063Z,82.35
2022-11-20T09:02:44.982Z,82.06
2022-11-20T09:05:11.589Z,81.83
2022-11-20T09:07:38.375Z,81.95
2022-11-20T09:12:56.396Z,81.55
2022-11-20T09:15:23.925Z,81.52
2022-11-20T09:17:59.113Z,81.99
2022-11-20T09:20:26.598Z,81.98
2022-11-20T09:22:53.228Z,81.90
2022-11-20T09:25:19.990Z,82.20
2022-11-20T09:27:47.242Z,82.40
2022-11-20T09:30:17.489Z,82.23
2022-11-20T09:32:44.198Z,82.54
2022-11-20T09:35:11.621Z,82.63
2022-11-20T09:37:38.625Z,82.24
2022-11-20T09:40:05.789Z,82.48
2022-11-20T09:42:54.571Z,82.65
2022-11-20T09:45:26.028Z,82.45
2022-11-20T09:47:55.843Z,82.71
2022-11-20T09:50:49.659Z,82.55
2022-11-20T09:53:41.874Z,82.81
2022-11-20T09:56:09.203Z,82.25
2022-11-20T09:58:52.408Z,82.37
2022-11-20T10:01:20.309Z,83.01
2022-11-20T10:03:50.778Z,83.26
2022-11-20T10:06:18.715Z,83.32
2022-11-20T10:08:56.711Z,83.60
2022-11-20T10:11:36.320Z,83.54
2022-11-20T10:14:09.620Z,83.45
2022-11-20T10:16:42.263Z,83.52
2022-11-20T10:19:33.928Z,83.55
2022-11-20T10:22:31.893Z,83.47
2022-11-20T10:25:23.702Z,83.98
2022-11-20T10:28:11.590Z,84.44
2022-11-20T10:30:39.902Z,83.73
2022-11-20T10:33:18.234Z,83.26
2022-11-20T10:36:01.964Z,83.64
2022-11-20T10:38:35.961Z,83.12
2022-11-20T10:41:21.851Z,83.18
2022-11-20T10:43:49.272Z,81.86
2022-11-20T10:46:18.828Z,81.16
2022-11-20T10:48:46.020Z,80.96
2022-11-20T10:51:38.016Z,81.15
2022-11-20T10:54:20.957Z,81.74
2022-11-20T10:56:51.738Z,81.07
2022-11-20T10:59:52.742Z,80.69
2022-11-20T11:02:21.284Z,80.35
2022-11-20T11:04:51.912Z,80.03
2022-11-20T11:07:22.615Z,79.86
2022-11-20T11:09:56.661Z,79.86
2022-11-20T11:12:25.486Z,79.82
2022-11-20T11:14:56.666Z,80.70
2022-11-20T11:17:31.618Z,80.79
2022-11-20T11:20:12.008Z,81.27
2022-11-20T11:22:59.313Z,81.40
2022-11-20T11:25:26.055Z,81.17
2022-11-20T11:27:53.138Z,80.36
2022-11-20T11:30:20.837Z,80.03
2022-11-20T11:32:47.659Z,80.05
2022-11-20T11:35:50.974Z,79.74
2022-11-20T11:38:29.538Z,79.36
2022-11-20T11:40:57.449Z,79.25
2022-11-20T11:43:45.428Z,79.02
2022-11-20T11:46:21.193Z,79.03
2022-11-20T11:49:01.755Z,79.40
2022-11-20T11:52:05.685Z,79.32
2022-11-20T11:54:41.022Z,79.79
2022-11-20T11:57:23.875Z,80.68
2022-11-20T12:00:12.042Z,81.39
2022-11-20T12:02:51.117Z,82.08
2022-11-20T12:05:27.975Z,82.80
2022-11-20T12:08:06.971Z,83.29
2022-11-20T12:10:50.212Z,83.78
2022-11-20T12:13:35.465Z,84.10
2022-11-20T12:16:03.368Z,84.49
2022-11-20T12:18:30.076Z,84.89
2022-11-20T12:21:22.386Z,85.24
2022-11-20T12:24:04.445Z,85.51
2022-11-20T12:26:52.496Z,86.00
2022-11-20T12:29:35.253Z,86.47
2022-11-20T12:32:17.176Z,86.85
2022-11-20T12:34:53.132Z,87.30
2022-11-20T12:37:30.951Z,87.63
2022-11-20T12:40:01.293Z,87.95
2022-11-20T12:43:20.573Z,88.00
2022-11-20T12:46:03.162Z,88.61
2022-11-20T12:48:32.913Z,89.07
2022-11-20T12:51:15.922Z,89.21
2022-11-20T12:53:55.070Z,89.45
2022-11-20T12:56:31.505Z,89.61
2022-11-20T12:59:17.852Z,89.80
2022-11-20T13:01:52.984Z,89.86
2022-11-20T13:04:28.740Z,89.98
2022-11-20T13:06:55.435Z,90.03
2022-11-20T13:09:25.188Z,90.21
2022-11-20T13:12:03.063Z,90.27
2022-11-20T13:14:35.217Z,90.40
2022-11-20T13:17:06.874Z,90.57
2022-11-20T13:19:33.675Z,90.61
2022-11-20T13:22:00.324Z,90.67
2022-11-20T13:24:33.456Z,91.03
2022-11-20T13:27:20.885Z,91.02
2022-11-20T13:30:19.235Z,91.27
2022-11-20T13:32:56.651Z,91.73
2022-11-20T13:35:29.610Z,91.85
2022-11-20T13:38:09.307Z,92.02
2022-11-20T13:40:56.728Z,92.17
2022-11-20T13:43:27.359Z,92.09
2022-11-20T13:46:01.417Z,92.41
2022-11-20T13:48:33.689Z,92.58
2022-11-20T13:51:23.677Z,92.72
2022-11-20T13:54:14.949Z,92.86
2022-11-20T13:57:06.987Z,92.85
2022-11-20T13:59:53.873Z,93.03
2022-11-20T14:02:21.125Z,93.13
2022-11-20T14:04:49.595Z,93.03
2022-11-20T14:07:17.568Z,93.10
2022-11-20T14:09:55.183Z,93.03
2022-11-20T18:06:27.497Z,100.00
2022-11-20T18:08:54.356Z,100.00
2022-11-20T18:11:25.743Z,100.00
2022-11-20T18:14:12.620Z,100.00
2022-11-20T18:16:47.514Z,100.00
2022-11-20T18:19:16.612Z,100.00
2022-11-20T18:21:43.440Z,100.00
2022-11-20T18:24:10.385Z,100.00
2022-11-20T18:26:42.766Z,100.00
2022-11-20T18:29:10.916Z,100.00
2022-11-20T18:31:37.530Z,100.00
2022-11-20T18:34:05.182Z,100.00
2022-11-20T18:36:32.712Z,100.00
2022-11-20T18:39:00.146Z,100.00
2022-11-20T18:41:47.031Z,100.00
2022-11-20T18:44:34.141Z,100.00
2022-11-20T18:47:00.908Z,100.00
2022-11-20T18:49:27.829Z,100.00
2022-11-20T18:51:54.801Z,100.00
2022-11-20T18:54:22.045Z,100.00
2022-11-20T18:56:49.134Z,100.00
2022-11-20T18:59:18.263Z,100.00
2022-11-20T19:01:45.266Z,100.00
2022-11-20T19:04:13.207Z,100.00
2022-11-20T19:06:40.627Z,100.00
2022-11-20T19:09:09.184Z,100.00
2022-11-20T19:11:36.698Z,100.00
2022-11-20T19:14:03.997Z,100.00
2022-11-20T19:16:31.193Z,100.00
2022-11-20T19:19:03.464Z,100.00
2022-11-20T19:21:30.578Z,100.00
2022-11-20T19:23:58.715Z,100.00
2022-11-20T19:26:25.842Z,100.00
2022-11-20T19:28:52.638Z,100.00
2022-11-20T19:31:24.471Z,100.00
2022-11-20T19:33:58.939Z,100.00
2022-11-20T19:36:27.962Z,100.00
2022-11-20T19:38:54.941Z,100.00
2022-11-20T19:41:29.221Z,100.00
2022-11-20T19:44:00.198Z,100.00
2022-11-20T19:46:28.640Z,100.00
2022-11-20T19:48:56.281Z,100.00
2022-11-20T19:51:27.585Z,100.00
2022-11-20T19:53:55.020Z,100.00
2022-11-20T19:56:21.776Z,100.00
2022-11-20T19:58:48.484Z,100.00
2022-11-20T20:01:19.903Z,100.00
2022-11-20T20:03:46.815Z,100.00
2022-11-20T20:06:20.930Z,100.00
2022-11-20T20:08:48.279Z,100.00
2022-11-20T20:11:19.243Z,100.00
2022-11-20T20:13:46.252Z,100.00
2022-11-20T20:16:14.938Z,100.00
2022-11-20T20:18:41.999Z,100.00
2022-11-20T20:21:10.988Z,100.00
2022-11-20T20:23:38.070Z,100.00
2022-11-20T20:26:05.684Z,100.00
2022-11-20T20:28:32.398Z,100.00
2022-11-20T20:31:09.068Z,100.00
2022-11-20T20:33:39.336Z,100.00
2022-11-20T20:36:06.335Z,100.00
2022-11-20T20:38:33.419Z,100.00
2022-11-20T20:41:00.290Z,100.00
2022-11-20T20:43:27.070Z,100.00
2022-11-20T20:45:53.938Z,100.00
2022-11-20T20:48:22.438Z,100.00
2022-11-20T20:50:56.091Z,100.00
2022-11-20T20:53:22.965Z,100.00
2022-11-20T20:56:00.053Z,100.00
2022-11-20T20:58:27.261Z,100.00
2022-11-20T21:00:54.466Z,100.00
2022-11-20T21:03:21.522Z,100.00
2022-11-20T21:05:54.996Z,100.00
2022-11-20T21:08:21.876Z,100.00
2022-11-20T21:10:49.190Z,100.00
2022-11-20T21:13:15.937Z,100.00
2022-11-20T21:15:48.683Z,100.00
2022-11-20T21:18:16.323Z,100.00
2022-11-20T21:21:02.253Z,100.00
2022-11-20T21:23:29.021Z,100.00
2022-11-20T21:25:55.799Z,100.00
2022-11-20T21:28:22.463Z,100.00
2022-11-20T21:30:49.176Z,100.00
2022-11-20T21:33:15.855Z,100.00
2022-11-20T21:35:42.710Z,100.00
2022-11-20T21:38:09.459Z,100.00
2022-11-20T21:40:36.106Z,100.00
2022-11-20T21:43:03.026Z,100.00
2022-11-20T21:45:29.743Z,100.00
2022-11-20T21:47:56.379Z,100.00
2022-11-20T21:50:23.012Z,100.00
2022-11-20T21:52:49.682Z,100.00
2022-11-20T21:55:16.602Z,100.00
2022-11-20T21:57:43.552Z,100.00
2022-11-20T22:00:11.246Z,100.00
2022-11-20T22:02:41.037Z,100.00
2022-11-20T22:05:08.709Z,100.00
2022-11-20T22:07:35.493Z,100.00
2022-11-20T22:10:02.266Z,100.00
2022-11-20T22:12:28.915Z,100.00
2022-11-20T22:14:55.653Z,100.00
2022-11-20T22:17:42.317Z,100.00
2022-11-20T22:20:09.733Z,100.00
2022-11-20T22:22:36.523Z,100.00
2022-11-20T22:25:03.483Z,99.96
2022-11-20T22:27:30.317Z,100.00
2022-11-20T22:29:57.045Z,100.00
2022-11-20T22:32:24.112Z,100.00
2022-11-20T22:34:50.804Z,100.00
2022-11-20T22:37:17.427Z,100.00
2022-11-20T22:39:44.151Z,99.99
2022-11-20T22:42:11.008Z,99.98
2022-11-20T22:44:37.802Z,99.95
2022-11-20T22:47:10.093Z,99.94
2022-11-20T22:49:38.187Z,100.00
2022-11-20T22:52:05.079Z,99.97
2022-11-20T22:54:31.778Z,99.99
2022-11-20T22:56:58.527Z,99.99
2022-11-20T22:59:25.210Z,100.00
2022-11-20T23:01:51.880Z,100.00
2022-11-20T23:04:18.669Z,100.00
2022-11-20T23:06:45.494Z,100.00
2022-11-20T23:09:12.923Z,100.00
2022-11-20T23:11:39.738Z,100.00
2022-11-20T23:14:11.275Z,100.00
2022-11-20T23:16:37.943Z,100.00
2022-11-20T23:19:06.355Z,100.00
2022-11-20T23:21:33.607Z,100.00
2022-11-20T23:24:01.451Z,100.00
2022-11-20T23:26:31.190Z,100.00
2022-11-20T23:28:58.502Z,100.00
2022-11-20T23:31:26.318Z,100.00
2022-11-20T23:33:53.077Z,100.00
2022-11-20T23:36:19.920Z,100.00
2022-11-20T23:38:46.596Z,100.00
2022-11-20T23:41:13.449Z,99.96
2022-11-20T23:43:40.185Z,99.93
2022-11-20T23:46:07.021Z,99.84
2022-11-20T23:48:34.995Z,99.79
2022-11-20T23:51:01.791Z,99.78
2022-11-20T23:53:28.743Z,99.90
2022-11-20T23:56:00.036Z,99.91
2022-11-20T23:58:32.327Z,99.86
